sensor_id;sensor_type;location;lat;lon;timestamp;temperature;humidity
35541;DHT22;21650;48.840;9.162;2023-01-05T00:01:55;10.40;99.90
35541;DHT22;21650;48.840;9.162;2023-01-05T00:04:21;10.40;99.90
35541;DHT22;21650;48.840;9.162;2023-01-05T00:06:47;10.30;99.90
35541;DHT22;21650;48.840;9.162;2023-01-05T00:09:14;10.30;99.90
35541;DHT22;21650;48.840;9.162;2023-01-05T00:11:41;10.30;99.90
35541;DHT22;21650;48.840;9.162;2023-01-05T00:14:27;10.40;99.90
35541;DHT22;21650;48.840;9.162;2023-01-05T00:17:17;10.40;99.90
35541;DHT22;21650;48.840;9.162;2023-01-05T00:20:03;10.40;99.90
35541;DHT22;21650;48.840;9.162;2023-01-05T00:22:50;10.40;99.90
35541;DHT22;21650;48.840;9.162;2023-01-05T00:25:23;10.40;99.90
35541;DHT22;21650;48.840;9.162;2023-01-05T00:27:50;10.40;99.90
35541;DHT22;21650;48.840;9.162;2023-01-05T00:30:22;10.50;99.90
35541;DHT22;21650;48.840;9.162;2023-01-05T00:32:48;10.50;99.90
35541;DHT22;21650;48.840;9.162;2023-01-05T00:35:15;10.50;99.90
35541;DHT22;21650;48.840;9.162;2023-01-05T00:37:41;10.60;99.90
35541;DHT22;21650;48.840;9.162;2023-01-05T00:40:13;10.50;99.90
35541;DHT22;21650;48.840;9.162;2023-01-05T00:42:39;10.60;99.90
35541;DHT22;21650;48.840;9.162;2023-01-05T00:45:07;10.60;99.90
35541;DHT22;21650;48.840;9.162;2023-01-05T00:47:33;10.60;99.90
35541;DHT22;21650;48.840;9.162;2023-01-05T00:49:59;10.60;99.90
35541;DHT22;21650;48.840;9.162;2023-01-05T00:52:24;10.60;99.90
35541;DHT22;21650;48.840;9.162;2023-01-05T00:54:50;10.60;99.90
35541;DHT22;21650;48.840;9.162;2023-01-05T00:57:16;10.60;99.90
35541;DHT22;21650;48.840;9.162;2023-01-05T00:59:41;10.60;99.90
35541;DHT22;21650;48.840;9.162;2023-01-05T01:02:07;10.60;99.90
35541;DHT22;21650;48.840;9.162;2023-01-05T01:04:34;10.60;99.90
35541;DHT22;21650;48.840;9.162;2023-01-05T01:07:01;10.60;99.90
35541;DHT22;21650;48.840;9.162;2023-01-05T01:09:26;10.50;99.90
35541;DHT22;21650;48.840;9.162;2023-01-05T01:11:52;10.60;99.90
35541;DHT22;21650;48.840;9.162;2023-01-05T01:14:18;10.60;99.90
35541;DHT22;21650;48.840;9.162;2023-01-05T01:16:44;10.60;99.90
35541;DHT22;21650;48.840;9.162;2023-01-05T01:19:15;10.60;99.90
35541;DHT22;21650;48.840;9.162;2023-01-05T01:21:41;10.60;99.90
35541;DHT22;21650;48.840;9.162;2023-01-05T01:24:07;10.60;99.90
35541;DHT22;21650;48.840;9.162;2023-01-05T01:26:32;10.60;99.90
35541;DHT22;21650;48.840;9.162;2023-01-05T01:28:58;10.60;99.90
35541;DHT22;21650;48.840;9.162;2023-01-05T01:31:23;10.60;99.90
35541;DHT22;21650;48.840;9.162;2023-01-05T01:33:49;10.60;99.90
35541;DHT22;21650;48.840;9.162;2023-01-05T01:36:15;10.60;99.90
35541;DHT22;21650;48.840;9.162;2023-01-05T01:38:41;10.60;99.90
35541;DHT22;21650;48.840;9.162;2023-01-05T01:41:06;10.60;99.90
35541;DHT22;21650;48.840;9.162;2023-01-05T01:46:10;10.60;99.90
35541;DHT22;21650;48.840;9.162;2023-01-05T01:48:41;10.60;99.90
35541;DHT22;21650;48.840;9.162;2023-01-05T01:51:13;10.60;99.90
35541;DHT22;21650;48.840;9.162;2023-01-05T01:53:46;10.60;99.90
35541;DHT22;21650;48.840;9.162;2023-01-05T01:56:16;10.60;99.90
35541;DHT22;21650;48.840;9.162;2023-01-05T01:58:42;10.60;99.90
35541;DHT22;21650;48.840;9.162;2023-01-05T02:01:09;10.60;99.90
35541;DHT22;21650;48.840;9.162;2023-01-05T02:03:36;10.60;99.90
35541;DHT22;21650;48.840;9.162;2023-01-05T02:06:02;10.60;99.90
35541;DHT22;21650;48.840;9.162;2023-01-05T02:08:28;10.60;99.90
35541;DHT22;21650;48.840;9.162;2023-01-05T02:32:35;10.60;99.90
35541;DHT22;21650;48.840;9.162;2023-01-05T02:35:40;10.60;99.90
35541;DHT22;21650;48.840;9.162;2023-01-05T02:38:42;10.60;99.90
35541;DHT22;21650;48.840;9.162;2023-01-05T02:41:38;10.60;99.90
35541;DHT22;21650;48.840;9.162;2023-01-05T02:44:07;10.60;99.90
35541;DHT22;21650;48.840;9.162;2023-01-05T02:46:33;10.60;99.90
35541;DHT22;21650;48.840;9.162;2023-01-05T02:49:00;10.70;99.90
35541;DHT22;21650;48.840;9.162;2023-01-05T02:51:35;10.70;99.90
35541;DHT22;21650;48.840;9.162;2023-01-05T02:56:36;10.70;99.90
35541;DHT22;21650;48.840;9.162;2023-01-05T02:59:27;10.70;99.90
35541;DHT22;21650;48.840;9.162;2023-01-05T03:01:58;10.70;99.90
35541;DHT22;21650;48.840;9.162;2023-01-05T03:04:46;10.60;99.90
35541;DHT22;21650;48.840;9.162;2023-01-05T03:07:15;10.60;99.90
35541;DHT22;21650;48.840;9.162;2023-01-05T03:09:44;10.70;99.90
35541;DHT22;21650;48.840;9.162;2023-01-05T03:12:22;10.70;99.90
35541;DHT22;21650;48.840;9.162;2023-01-05T03:17:44;10.70;99.90
35541;DHT22;21650;48.840;9.162;2023-01-05T03:20:13;10.70;99.90
35541;DHT22;21650;48.840;9.162;2023-01-05T03:22:40;10.70;99.90
35541;DHT22;21650;48.840;9.162;2023-01-05T03:25:26;10.70;99.90
35541;DHT22;21650;48.840;9.162;2023-01-05T03:28:21;10.70;99.90
35541;DHT22;21650;48.840;9.162;2023-01-05T03:31:18;10.80;99.90
35541;DHT22;21650;48.840;9.162;2023-01-05T03:37:09;10.70;99.90
35541;DHT22;21650;48.840;9.162;2023-01-05T03:39:40;10.80;99.90
35541;DHT22;21650;48.840;9.162;2023-01-05T03:42:08;10.80;99.90
35541;DHT22;21650;48.840;9.162;2023-01-05T03:44:38;10.80;99.90
35541;DHT22;21650;48.840;9.162;2023-01-05T03:47:04;10.90;99.90
35541;DHT22;21650;48.840;9.162;2023-01-05T03:49:30;10.80;99.90
35541;DHT22;21650;48.840;9.162;2023-01-05T03:51:56;10.80;99.90
35541;DHT22;21650;48.840;9.162;2023-01-05T03:54:21;10.80;99.90
35541;DHT22;21650;48.840;9.162;2023-01-05T03:56:47;10.80;99.90
35541;DHT22;21650;48.840;9.162;2023-01-05T03:59:13;10.80;99.90
35541;DHT22;21650;48.840;9.162;2023-01-05T04:01:38;10.80;99.90
35541;DHT22;21650;48.840;9.162;2023-01-05T04:04:04;10.80;99.90
35541;DHT22;21650;48.840;9.162;2023-01-05T04:06:29;10.80;99.90
35541;DHT22;21650;48.840;9.162;2023-01-05T04:08:55;10.90;99.90
35541;DHT22;21650;48.840;9.162;2023-01-05T04:11:22;10.80;99.90
35541;DHT22;21650;48.840;9.162;2023-01-05T04:13:48;10.80;99.90
35541;DHT22;21650;48.840;9.162;2023-01-05T04:16:14;10.80;99.90
35541;DHT22;21650;48.840;9.162;2023-01-05T04:18:39;10.80;99.90
35541;DHT22;21650;48.840;9.162;2023-01-05T04:21:06;10.80;99.90
35541;DHT22;21650;48.840;9.162;2023-01-05T04:23:31;10.80;99.90
35541;DHT22;21650;48.840;9.162;2023-01-05T04:25:57;10.80;99.90
35541;DHT22;21650;48.840;9.162;2023-01-05T04:28:23;10.80;99.90
35541;DHT22;21650;48.840;9.162;2023-01-05T04:30:50;10.80;99.90
35541;DHT22;21650;48.840;9.162;2023-01-05T04:33:16;10.80;99.90
35541;DHT22;21650;48.840;9.162;2023-01-05T04:35:41;10.80;99.90
35541;DHT22;21650;48.840;9.162;2023-01-05T04:38:07;10.80;99.90
35541;DHT22;21650;48.840;9.162;2023-01-05T04:40:33;10.80;99.90
35541;DHT22;21650;48.840;9.162;2023-01-05T04:42:58;10.90;99.90
35541;DHT22;21650;48.840;9.162;2023-01-05T04:45:24;10.90;99.90
35541;DHT22;21650;48.840;9.162;2023-01-05T04:47:50;10.90;99.90
35541;DHT22;21650;48.840;9.162;2023-01-05T04:50:17;10.90;99.90
35541;DHT22;21650;48.840;9.162;2023-01-05T04:52:42;10.90;99.90
35541;DHT22;21650;48.840;9.162;2023-01-05T04:55:08;11.00;99.90
35541;DHT22;21650;48.840;9.162;2023-01-05T04:57:34;10.90;99.90
35541;DHT22;21650;48.840;9.162;2023-01-05T05:00:00;10.90;99.90
35541;DHT22;21650;48.840;9.162;2023-01-05T05:02:26;11.00;99.90
35541;DHT22;21650;48.840;9.162;2023-01-05T05:04:52;11.00;99.90
35541;DHT22;21650;48.840;9.162;2023-01-05T05:07:17;11.00;99.90
35541;DHT22;21650;48.840;9.162;2023-01-05T05:09:43;10.90;99.90
35541;DHT22;21650;48.840;9.162;2023-01-05T05:12:08;10.90;99.90
35541;DHT22;21650;48.840;9.162;2023-01-05T05:14:34;11.00;99.90
35541;DHT22;21650;48.840;9.162;2023-01-05T05:17:00;11.10;99.90
35541;DHT22;21650;48.840;9.162;2023-01-05T05:19:25;11.20;99.90
35541;DHT22;21650;48.840;9.162;2023-01-05T05:21:51;11.20;99.90
35541;DHT22;21650;48.840;9.162;2023-01-05T05:24:16;11.10;99.90
35541;DHT22;21650;48.840;9.162;2023-01-05T05:26:42;11.10;99.90
35541;DHT22;21650;48.840;9.162;2023-01-05T05:29:08;11.20;99.90
35541;DHT22;21650;48.840;9.162;2023-01-05T05:31:33;11.30;99.90
35541;DHT22;21650;48.840;9.162;2023-01-05T05:33:59;11.30;99.90
35541;DHT22;21650;48.840;9.162;2023-01-05T05:36:24;11.30;99.90
35541;DHT22;21650;48.840;9.162;2023-01-05T05:38:50;11.20;99.90
35541;DHT22;21650;48.840;9.162;2023-01-05T05:41:16;11.20;99.90
35541;DHT22;21650;48.840;9.162;2023-01-05T05:43:41;11.20;99.90
35541;DHT22;21650;48.840;9.162;2023-01-05T05:46:07;11.10;99.90
35541;DHT22;21650;48.840;9.162;2023-01-05T05:48:33;11.10;99.90
35541;DHT22;21650;48.840;9.162;2023-01-05T05:50:58;11.20;99.90
35541;DHT22;21650;48.840;9.162;2023-01-05T05:53:24;11.30;99.90
35541;DHT22;21650;48.840;9.162;2023-01-05T05:55:50;11.20;99.90
35541;DHT22;21650;48.840;9.162;2023-01-05T05:58:16;11.20;99.90
35541;DHT22;21650;48.840;9.162;2023-01-05T06:00:42;11.20;99.90
35541;DHT22;21650;48.840;9.162;2023-01-05T06:03:08;11.20;99.90
35541;DHT22;21650;48.840;9.162;2023-01-05T06:05:34;11.20;99.90
35541;DHT22;21650;48.840;9.162;2023-01-05T06:07:59;11.10;99.90
35541;DHT22;21650;48.840;9.162;2023-01-05T06:10:25;11.10;99.90
35541;DHT22;21650;48.840;9.162;2023-01-05T06:12:52;11.10;99.90
35541;DHT22;21650;48.840;9.162;2023-01-05T06:15:19;11.10;99.90
35541;DHT22;21650;48.840;9.162;2023-01-05T06:17:45;11.10;99.90
35541;DHT22;21650;48.840;9.162;2023-01-05T06:20:11;11.10;99.90
35541;DHT22;21650;48.840;9.162;2023-01-05T06:22:37;11.10;99.90
35541;DHT22;21650;48.840;9.162;2023-01-05T06:25:03;11.00;99.90
35541;DHT22;21650;48.840;9.162;2023-01-05T06:27:29;11.00;99.90
35541;DHT22;21650;48.840;9.162;2023-01-05T06:29:55;10.90;99.90
35541;DHT22;21650;48.840;9.162;2023-01-05T06:32:20;10.90;99.90
35541;DHT22;21650;48.840;9.162;2023-01-05T06:34:46;10.80;99.90
35541;DHT22;21650;48.840;9.162;2023-01-05T06:37:11;10.70;99.90
35541;DHT22;21650;48.840;9.162;2023-01-05T06:39:37;10.60;99.90
35541;DHT22;21650;48.840;9.162;2023-01-05T06:42:03;10.60;99.90
35541;DHT22;21650;48.840;9.162;2023-01-05T06:44:28;10.60;99.90
35541;DHT22;21650;48.840;9.162;2023-01-05T06:46:54;10.60;99.90
35541;DHT22;21650;48.840;9.162;2023-01-05T06:49:20;10.60;99.90
35541;DHT22;21650;48.840;9.162;2023-01-05T06:51:45;10.60;99.90
35541;DHT22;21650;48.840;9.162;2023-01-05T06:54:11;10.60;99.90
35541;DHT22;21650;48.840;9.162;2023-01-05T06:56:37;10.50;99.90
35541;DHT22;21650;48.840;9.162;2023-01-05T06:59:03;10.50;99.90
35541;DHT22;21650;48.840;9.162;2023-01-05T07:01:28;10.40;99.90
35541;DHT22;21650;48.840;9.162;2023-01-05T07:03:54;10.30;99.90
35541;DHT22;21650;48.840;9.162;2023-01-05T07:06:20;10.30;99.90
35541;DHT22;21650;48.840;9.162;2023-01-05T07:08:45;10.30;99.90
35541;DHT22;21650;48.840;9.162;2023-01-05T07:11:11;10.30;99.90
35541;DHT22;21650;48.840;9.162;2023-01-05T07:13:38;10.30;99.90
35541;DHT22;21650;48.840;9.162;2023-01-05T07:16:04;10.40;99.90
35541;DHT22;21650;48.840;9.162;2023-01-05T07:18:29;10.30;99.90
35541;DHT22;21650;48.840;9.162;2023-01-05T07:20:55;10.40;99.90
35541;DHT22;21650;48.840;9.162;2023-01-05T07:23:20;10.50;99.90
35541;DHT22;21650;48.840;9.162;2023-01-05T07:25:46;10.50;99.90
35541;DHT22;21650;48.840;9.162;2023-01-05T07:28:11;10.50;99.90
35541;DHT22;21650;48.840;9.162;2023-01-05T07:30:37;10.60;99.90
35541;DHT22;21650;48.840;9.162;2023-01-05T07:33:02;10.60;99.90
35541;DHT22;21650;48.840;9.162;2023-01-05T07:35:28;10.60;99.90
35541;DHT22;21650;48.840;9.162;2023-01-05T07:37:56;10.60;99.90
35541;DHT22;21650;48.840;9.162;2023-01-05T07:40:22;10.60;99.90
35541;DHT22;21650;48.840;9.162;2023-01-05T07:42:51;10.70;99.90
35541;DHT22;21650;48.840;9.162;2023-01-05T07:45:18;10.70;99.90
35541;DHT22;21650;48.840;9.162;2023-01-05T07:47:44;10.70;99.90
35541;DHT22;21650;48.840;9.162;2023-01-05T07:50:10;10.60;99.90
35541;DHT22;21650;48.840;9.162;2023-01-05T07:52:36;10.60;99.90
35541;DHT22;21650;48.840;9.162;2023-01-05T07:55:01;10.60;99.90
35541;DHT22;21650;48.840;9.162;2023-01-05T07:57:27;10.70;99.90
35541;DHT22;21650;48.840;9.162;2023-01-05T07:59:52;10.70;99.90
35541;DHT22;21650;48.840;9.162;2023-01-05T08:02:19;10.70;99.90
35541;DHT22;21650;48.840;9.162;2023-01-05T08:04:45;10.70;99.90
35541;DHT22;21650;48.840;9.162;2023-01-05T08:07:11;10.70;99.90
35541;DHT22;21650;48.840;9.162;2023-01-05T08:09:37;10.80;99.90
35541;DHT22;21650;48.840;9.162;2023-01-05T08:12:21;10.90;99.90
35541;DHT22;21650;48.840;9.162;2023-01-05T08:14:47;10.80;99.90
35541;DHT22;21650;48.840;9.162;2023-01-05T08:17:12;10.90;99.90
35541;DHT22;21650;48.840;9.162;2023-01-05T08:19:38;10.80;99.90
35541;DHT22;21650;48.840;9.162;2023-01-05T08:22:03;10.90;99.90
35541;DHT22;21650;48.840;9.162;2023-01-05T08:24:29;10.80;99.90
35541;DHT22;21650;48.840;9.162;2023-01-05T08:26:55;10.80;99.90
35541;DHT22;21650;48.840;9.162;2023-01-05T08:29:20;10.80;99.90
35541;DHT22;21650;48.840;9.162;2023-01-05T08:31:46;10.80;99.90
35541;DHT22;21650;48.840;9.162;2023-01-05T08:34:11;10.80;99.90
35541;DHT22;21650;48.840;9.162;2023-01-05T08:36:37;10.80;99.90
35541;DHT22;21650;48.840;9.162;2023-01-05T08:39:04;10.80;99.90
35541;DHT22;21650;48.840;9.162;2023-01-05T08:41:32;10.70;99.90
35541;DHT22;21650;48.840;9.162;2023-01-05T08:44:03;10.70;99.90
35541;DHT22;21650;48.840;9.162;2023-01-05T08:46:31;10.80;99.90
35541;DHT22;21650;48.840;9.162;2023-01-05T08:48:59;10.80;99.90
35541;DHT22;21650;48.840;9.162;2023-01-05T08:51:25;10.80;99.90
35541;DHT22;21650;48.840;9.162;2023-01-05T08:53:51;10.90;99.90
35541;DHT22;21650;48.840;9.162;2023-01-05T08:56:17;10.90;99.90
35541;DHT22;21650;48.840;9.162;2023-01-05T08:58:43;10.90;99.90
35541;DHT22;21650;48.840;9.162;2023-01-05T09:01:11;10.80;99.90
35541;DHT22;21650;48.840;9.162;2023-01-05T09:03:38;10.90;99.90
35541;DHT22;21650;48.840;9.162;2023-01-05T09:06:05;10.80;99.90
35541;DHT22;21650;48.840;9.162;2023-01-05T09:08:32;10.80;99.90
35541;DHT22;21650;48.840;9.162;2023-01-05T09:11:12;10.80;99.90
35541;DHT22;21650;48.840;9.162;2023-01-05T09:13:39;10.90;99.90
35541;DHT22;21650;48.840;9.162;2023-01-05T09:16:07;10.90;99.90
35541;DHT22;21650;48.840;9.162;2023-01-05T09:18:33;10.90;99.90
35541;DHT22;21650;48.840;9.162;2023-01-05T09:20:59;10.90;99.90
35541;DHT22;21650;48.840;9.162;2023-01-05T09:23:25;10.90;99.90
35541;DHT22;21650;48.840;9.162;2023-01-05T09:25:50;10.90;99.90
35541;DHT22;21650;48.840;9.162;2023-01-05T09:28:16;10.90;99.90
35541;DHT22;21650;48.840;9.162;2023-01-05T09:30:42;11.00;99.90
35541;DHT22;21650;48.840;9.162;2023-01-05T09:33:07;11.00;99.90
35541;DHT22;21650;48.840;9.162;2023-01-05T09:35:33;11.00;99.90
35541;DHT22;21650;48.840;9.162;2023-01-05T09:37:58;11.00;99.90
35541;DHT22;21650;48.840;9.162;2023-01-05T09:40:24;11.10;99.90
35541;DHT22;21650;48.840;9.162;2023-01-05T09:42:50;11.10;99.90
35541;DHT22;21650;48.840;9.162;2023-01-05T09:45:24;11.00;99.90
35541;DHT22;21650;48.840;9.162;2023-01-05T09:47:51;11.10;99.90
35541;DHT22;21650;48.840;9.162;2023-01-05T09:50:20;11.00;99.90
35541;DHT22;21650;48.840;9.162;2023-01-05T09:52:48;11.00;99.90
35541;DHT22;21650;48.840;9.162;2023-01-05T09:55:16;11.00;99.90
35541;DHT22;21650;48.840;9.162;2023-01-05T09:57:50;11.00;99.90
35541;DHT22;21650;48.840;9.162;2023-01-05T10:00:17;11.00;99.90
35541;DHT22;21650;48.840;9.162;2023-01-05T10:02:47;11.00;99.90
35541;DHT22;21650;48.840;9.162;2023-01-05T10:05:14;11.00;99.90
35541;DHT22;21650;48.840;9.162;2023-01-05T10:07:48;10.90;99.90
35541;DHT22;21650;48.840;9.162;2023-01-05T10:10:25;11.00;99.90
35541;DHT22;21650;48.840;9.162;2023-01-05T10:12:51;11.00;99.90
35541;DHT22;21650;48.840;9.162;2023-01-05T10:15:47;11.00;99.90
35541;DHT22;21650;48.840;9.162;2023-01-05T10:18:29;11.10;99.90
35541;DHT22;21650;48.840;9.162;2023-01-05T10:21:14;11.10;99.90
35541;DHT22;21650;48.840;9.162;2023-01-05T10:29:11;11.20;99.90
35541;DHT22;21650;48.840;9.162;2023-01-05T10:31:46;11.20;99.90
35541;DHT22;21650;48.840;9.162;2023-01-05T10:34:20;11.20;99.90
35541;DHT22;21650;48.840;9.162;2023-01-05T10:36:52;11.20;99.90
35541;DHT22;21650;48.840;9.162;2023-01-05T10:39:57;11.30;99.90
35541;DHT22;21650;48.840;9.162;2023-01-05T10:42:42;11.30;99.90
35541;DHT22;21650;48.840;9.162;2023-01-05T10:45:12;11.30;99.90
35541;DHT22;21650;48.840;9.162;2023-01-05T10:47:38;11.30;99.90
35541;DHT22;21650;48.840;9.162;2023-01-05T10:53:07;11.40;99.90
35541;DHT22;21650;48.840;9.162;2023-01-05T10:55:41;11.40;99.90
35541;DHT22;21650;48.840;9.162;2023-01-05T10:58:20;11.30;99.90
35541;DHT22;21650;48.840;9.162;2023-01-05T11:00:47;11.40;99.90
35541;DHT22;21650;48.840;9.162;2023-01-05T11:03:15;11.40;99.90
35541;DHT22;21650;48.840;9.162;2023-01-05T11:05:44;11.40;99.90
35541;DHT22;21650;48.840;9.162;2023-01-05T11:08:18;11.40;99.90
35541;DHT22;21650;48.840;9.162;2023-01-05T11:24:07;11.30;99.90
35541;DHT22;21650;48.840;9.162;2023-01-05T11:26:57;11.30;99.90
35541;DHT22;21650;48.840;9.162;2023-01-05T11:29:24;11.40;99.90
35541;DHT22;21650;48.840;9.162;2023-01-05T11:31:59;11.40;99.90
35541;DHT22;21650;48.840;9.162;2023-01-05T11:45:02;11.40;99.90
35541;DHT22;21650;48.840;9.162;2023-01-05T11:50:01;11.40;99.90
35541;DHT22;21650;48.840;9.162;2023-01-05T11:52:33;11.40;99.90
35541;DHT22;21650;48.840;9.162;2023-01-05T11:57:51;11.40;99.90
35541;DHT22;21650;48.840;9.162;2023-01-05T12:00:24;11.40;99.90
35541;DHT22;21650;48.840;9.162;2023-01-05T12:06:00;11.30;99.90
35541;DHT22;21650;48.840;9.162;2023-01-05T12:11:03;11.40;99.90
35541;DHT22;21650;48.840;9.162;2023-01-05T12:13:57;11.40;99.90
35541;DHT22;21650;48.840;9.162;2023-01-05T12:16:52;11.40;99.90
35541;DHT22;21650;48.840;9.162;2023-01-05T12:19:36;11.30;99.90
35541;DHT22;21650;48.840;9.162;2023-01-05T12:23:11;11.30;99.90
35541;DHT22;21650;48.840;9.162;2023-01-05T12:28:30;11.30;99.90
35541;DHT22;21650;48.840;9.162;2023-01-05T12:34:10;11.30;99.90
35541;DHT22;21650;48.840;9.162;2023-01-05T12:36:42;11.30;99.90
35541;DHT22;21650;48.840;9.162;2023-01-05T12:53:06;11.30;99.90
35541;DHT22;21650;48.840;9.162;2023-01-05T12:55:47;11.30;99.90
35541;DHT22;21650;48.840;9.162;2023-01-05T12:58:17;11.30;99.90
35541;DHT22;21650;48.840;9.162;2023-01-05T13:00:47;11.30;99.90
35541;DHT22;21650;48.840;9.162;2023-01-05T13:03:32;11.30;99.90
35541;DHT22;21650;48.840;9.162;2023-01-05T13:06:03;11.30;99.90
35541;DHT22;21650;48.840;9.162;2023-01-05T13:08:58;11.30;99.90
35541;DHT22;21650;48.840;9.162;2023-01-05T13:11:39;11.30;99.90
35541;DHT22;21650;48.840;9.162;2023-01-05T13:16:43;11.30;99.90
35541;DHT22;21650;48.840;9.162;2023-01-05T13:19:30;11.30;99.90
35541;DHT22;21650;48.840;9.162;2023-01-05T13:22:03;11.30;99.90
35541;DHT22;21650;48.840;9.162;2023-01-05T13:24:34;11.20;99.90
35541;DHT22;21650;48.840;9.162;2023-01-05T13:27:00;11.20;99.90
35541;DHT22;21650;48.840;9.162;2023-01-05T13:29:32;11.30;99.90
35541;DHT22;21650;48.840;9.162;2023-01-05T13:37:24;11.30;99.90
35541;DHT22;21650;48.840;9.162;2023-01-05T13:40:02;11.30;99.90
35541;DHT22;21650;48.840;9.162;2023-01-05T13:48:32;11.40;99.90
35541;DHT22;21650;48.840;9.162;2023-01-05T13:54:08;11.40;99.90
35541;DHT22;21650;48.840;9.162;2023-01-05T13:56:38;11.40;99.90
35541;DHT22;21650;48.840;9.162;2023-01-05T13:59:07;11.40;99.90
35541;DHT22;21650;48.840;9.162;2023-01-05T14:04:16;11.50;99.90
35541;DHT22;21650;48.840;9.162;2023-01-05T14:06:43;11.40;99.90
35541;DHT22;21650;48.840;9.162;2023-01-05T14:09:29;11.40;99.90
35541;DHT22;21650;48.840;9.162;2023-01-05T14:23:00;11.40;99.90
35541;DHT22;21650;48.840;9.162;2023-01-05T14:33:47;11.30;99.90
35541;DHT22;21650;48.840;9.162;2023-01-05T14:39:25;11.30;99.90
35541;DHT22;21650;48.840;9.162;2023-01-05T14:42:04;11.20;99.90
35541;DHT22;21650;48.840;9.162;2023-01-05T14:44:57;11.10;99.90
35541;DHT22;21650;48.840;9.162;2023-01-05T14:50:23;11.10;99.90
35541;DHT22;21650;48.840;9.162;2023-01-05T14:53:06;11.20;99.90
35541;DHT22;21650;48.840;9.162;2023-01-05T14:55:37;11.10;99.90
35541;DHT22;21650;48.840;9.162;2023-01-05T15:00:43;11.10;99.90
35541;DHT22;21650;48.840;9.162;2023-01-05T15:03:24;11.10;99.90
35541;DHT22;21650;48.840;9.162;2023-01-05T15:06:02;11.10;99.90
35541;DHT22;21650;48.840;9.162;2023-01-05T15:11:59;11.10;99.90
35541;DHT22;21650;48.840;9.162;2023-01-05T15:14:42;11.10;99.90
35541;DHT22;21650;48.840;9.162;2023-01-05T15:17:20;11.10;99.90
35541;DHT22;21650;48.840;9.162;2023-01-05T15:31:31;11.10;99.90
35541;DHT22;21650;48.840;9.162;2023-01-05T15:34:00;11.10;99.90
35541;DHT22;21650;48.840;9.162;2023-01-05T15:36:33;11.10;99.90
35541;DHT22;21650;48.840;9.162;2023-01-05T15:41:53;11.00;99.90
35541;DHT22;21650;48.840;9.162;2023-01-05T15:44:20;11.00;99.90
35541;DHT22;21650;48.840;9.162;2023-01-05T15:46:47;11.00;99.90
35541;DHT22;21650;48.840;9.162;2023-01-05T15:49:22;11.00;99.90
35541;DHT22;21650;48.840;9.162;2023-01-05T15:51:53;11.00;99.90
35541;DHT22;21650;48.840;9.162;2023-01-05T15:54:26;11.00;99.90
35541;DHT22;21650;48.840;9.162;2023-01-05T15:56:53;11.00;99.90
35541;DHT22;21650;48.840;9.162;2023-01-05T16:01:53;11.00;99.90
35541;DHT22;21650;48.840;9.162;2023-01-05T16:04:19;11.00;99.90
35541;DHT22;21650;48.840;9.162;2023-01-05T16:06:57;11.00;99.90
35541;DHT22;21650;48.840;9.162;2023-01-05T16:09:29;11.00;99.90
35541;DHT22;21650;48.840;9.162;2023-01-05T16:12:15;11.00;99.90
35541;DHT22;21650;48.840;9.162;2023-01-05T16:14:50;11.00;99.90
35541;DHT22;21650;48.840;9.162;2023-01-05T16:17:21;11.00;99.90
35541;DHT22;21650;48.840;9.162;2023-01-05T16:19:50;10.90;99.90
35541;DHT22;21650;48.840;9.162;2023-01-05T16:24:50;11.00;99.90
35541;DHT22;21650;48.840;9.162;2023-01-05T16:27:17;11.00;99.90
35541;DHT22;21650;48.840;9.162;2023-01-05T16:29:45;10.90;99.90
35541;DHT22;21650;48.840;9.162;2023-01-05T16:32:33;10.90;99.90
35541;DHT22;21650;48.840;9.162;2023-01-05T16:40:34;10.90;99.90
35541;DHT22;21650;48.840;9.162;2023-01-05T16:43:00;10.90;99.90
35541;DHT22;21650;48.840;9.162;2023-01-05T16:45:31;10.90;99.90
35541;DHT22;21650;48.840;9.162;2023-01-05T16:47:57;10.90;99.90
35541;DHT22;21650;48.840;9.162;2023-01-05T16:50:50;10.80;99.90
35541;DHT22;21650;48.840;9.162;2023-01-05T16:53:13;10.90;99.90
35541;DHT22;21650;48.840;9.162;2023-01-05T16:55:40;10.80;99.90
35541;DHT22;21650;48.840;9.162;2023-01-05T17:00:54;10.80;99.90
35541;DHT22;21650;48.840;9.162;2023-01-05T17:03:40;10.70;99.90
35541;DHT22;21650;48.840;9.162;2023-01-05T17:06:26;10.80;99.90
35541;DHT22;21650;48.840;9.162;2023-01-05T17:08:54;10.80;99.90
35541;DHT22;21650;48.840;9.162;2023-01-05T17:11:20;10.80;99.90
35541;DHT22;21650;48.840;9.162;2023-01-05T17:13:51;10.70;99.90
35541;DHT22;21650;48.840;9.162;2023-01-05T17:16:17;10.70;99.90
35541;DHT22;21650;48.840;9.162;2023-01-05T17:18:43;10.70;99.90
35541;DHT22;21650;48.840;9.162;2023-01-05T17:21:13;10.70;99.90
35541;DHT22;21650;48.840;9.162;2023-01-05T17:23:43;10.70;99.90
35541;DHT22;21650;48.840;9.162;2023-01-05T17:28:47;10.60;99.90
35541;DHT22;21650;48.840;9.162;2023-01-05T17:31:13;10.60;99.90
35541;DHT22;21650;48.840;9.162;2023-01-05T17:33:39;10.50;99.90
35541;DHT22;21650;48.840;9.162;2023-01-05T17:36:04;10.50;99.90
35541;DHT22;21650;48.840;9.162;2023-01-05T17:38:30;10.50;99.90
35541;DHT22;21650;48.840;9.162;2023-01-05T17:40:56;10.40;99.90
35541;DHT22;21650;48.840;9.162;2023-01-05T17:43:23;10.40;99.90
35541;DHT22;21650;48.840;9.162;2023-01-05T17:45:48;10.30;99.90
35541;DHT22;21650;48.840;9.162;2023-01-05T17:48:15;10.30;99.90
35541;DHT22;21650;48.840;9.162;2023-01-05T17:50:41;10.30;99.90
35541;DHT22;21650;48.840;9.162;2023-01-05T17:53:06;10.30;99.90
35541;DHT22;21650;48.840;9.162;2023-01-05T17:55:33;10.40;99.90
35541;DHT22;21650;48.840;9.162;2023-01-05T17:57:59;10.30;99.90
35541;DHT22;21650;48.840;9.162;2023-01-05T18:00:27;10.40;99.90
35541;DHT22;21650;48.840;9.162;2023-01-05T18:02:53;10.40;99.90
35541;DHT22;21650;48.840;9.162;2023-01-05T18:05:20;10.30;99.90
35541;DHT22;21650;48.840;9.162;2023-01-05T18:07:46;10.30;99.90
35541;DHT22;21650;48.840;9.162;2023-01-05T18:10:18;10.20;99.90
35541;DHT22;21650;48.840;9.162;2023-01-05T18:12:44;10.30;99.90
35541;DHT22;21650;48.840;9.162;2023-01-05T18:15:11;10.30;99.90
35541;DHT22;21650;48.840;9.162;2023-01-05T18:17:37;10.20;99.90
35541;DHT22;21650;48.840;9.162;2023-01-05T18:20:03;10.30;99.90
35541;DHT22;21650;48.840;9.162;2023-01-05T18:22:29;10.20;99.90
35541;DHT22;21650;48.840;9.162;2023-01-05T18:24:55;10.10;99.90
35541;DHT22;21650;48.840;9.162;2023-01-05T18:27:20;10.20;99.90
35541;DHT22;21650;48.840;9.162;2023-01-05T18:29:46;10.20;99.90
35541;DHT22;21650;48.840;9.162;2023-01-05T18:32:12;10.20;99.90
35541;DHT22;21650;48.840;9.162;2023-01-05T18:34:37;10.20;99.90
35541;DHT22;21650;48.840;9.162;2023-01-05T18:37:03;10.20;99.90
35541;DHT22;21650;48.840;9.162;2023-01-05T18:39:30;10.10;99.90
35541;DHT22;21650;48.840;9.162;2023-01-05T18:41:56;10.20;99.90
35541;DHT22;21650;48.840;9.162;2023-01-05T18:44:21;10.10;99.90